Barbarossa — ZDFA4 — position and weather

sailwx.info

Track history (hours):
 
Tides and Currents Weather Stations Pressure Air Temp Water Temp Dewpoint Dewpoint Depression Visibility Wind Speed Wind Dir Waves Ship Positions

Barbarossa

Last reported at 2017-Apr-25 22:19 UTC. Time now 2017-Apr-26 04:08 UTC.
Position N 51°08' W 004°31'.

Length 83 m; draft 5.5 m.

Type: Cargo ship. MMSI: 236029000.

Date/timePositionNaut miles runAvg speedWind from/ knotsBaromVisibWave heightAir tempDewpointWater temp
2017-Apr-25 22:19N 51°08' W 004°31'2 8.0
2017-Apr-25 22:00N 51°06' W 004°34'4 7.1
2017-Apr-25 21:30N 51°04' W 004°38'4 7.3
2017-Apr-25 21:00N 51°01' W 004°42'4 7.6
2017-Apr-25 20:30N 50°59' W 004°46'4 7.7
2017-Apr-25 20:00N 50°56' W 004°51'4 7.4
2017-Apr-25 19:30N 50°54' W 004°56'4 7.6
2017-Apr-25 19:00N 50°52' W 005°01'4 7.8
2017-Apr-25 18:30N 50°49' W 005°05'4 8.2
2017-Apr-25 18:00N 50°47' W 005°11'4 8.3
2017-Apr-25 17:30N 50°44' W 005°16'4 8.7
2017-Apr-25 17:00N 50°41' W 005°21'4 8.9
2017-Apr-25 16:30N 50°39' W 005°27'4 8.9
2017-Apr-25 16:00N 50°36' W 005°32'4 8.4
2017-Apr-25 15:30N 50°33' W 005°37'4 8.6
2017-Apr-25 15:00N 50°30' W 005°42'5 9.0
2017-Apr-25 14:26N 50°27' W 005°48'57 6.7
2017-Apr-25 05:52N 49°59' W 004°29'4 9.8
2017-Apr-25 05:25N 49°60' W 004°23'4 9.5
2017-Apr-25 05:00N 50°01' W 004°17'6 9.4
2017-Apr-25 04:20N 50°02' W 004°07'12 9.5
2017-Apr-25 03:04N 50°05' W 003°49'1 9.9
2017-Apr-25 03:00N 50°05' W 003°48'510.1
2017-Apr-25 02:30N 50°07' W 003°40'510.7
2017-Apr-25 02:00N 50°08' W 003°32'611.2
2017-Apr-25 01:30N 50°09' W 003°24'611.7
2017-Apr-25 01:00N 50°10' W 003°15'612.1
2017-Apr-25 00:30N 50°12' W 003°06'712.3
2017-Apr-24 23:56N 50°13' W 002°55'99 8.4
2017-Apr-24 12:11N 50°29' W 000°22'211.9
2017-Apr-24 12:00N 50°29' W 000°18'611.7
2017-Apr-24 11:30N 50°30' W 000°09'611.3
2017-Apr-24 11:00N 50°32' W 000°01'510.9
2017-Apr-24 10:30N 50°34' E 000°07'510.5
2017-Apr-24 10:00N 50°35' E 000°16'610.0
2017-Apr-24 09:25N 50°37' E 000°24'4 9.5
2017-Apr-24 09:00N 50°38' E 000°30'5 9.1
2017-Apr-24 08:30N 50°40' E 000°37'4 9.0
2017-Apr-24 08:01N 50°42' E 000°43'4 8.9
2017-Apr-24 07:30N 50°45' E 000°48'2610.4
2017-Apr-24 04:59N 51°01' E 001°21'612.1
2017-Apr-24 04:30N 51°05' E 001°28'611.7
2017-Apr-24 04:00N 51°08' E 001°35'510.9
2017-Apr-24 03:30N 51°12' E 001°42'510.3
2017-Apr-24 03:00N 51°16' E 001°47'5 9.9
2017-Apr-24 02:30N 51°21' E 001°50'5 9.3
2017-Apr-24 02:00N 51°25' E 001°54'4 9.0
2017-Apr-24 01:30N 51°28' E 001°58'4 8.7
2017-Apr-24 01:00N 51°32' E 002°02'4 8.6
2017-Apr-24 00:31N 51°35' E 002°07'4 8.6
2017-Apr-24 00:00N 51°38' E 002°12'9 8.5
2017-Apr-23 23:00N 51°44' E 002°21'253 8.8
2017-Apr-22 18:22N 54°01' E 008°15'3 7.3
2017-Apr-22 17:55N 53°60' E 008°20'4 7.0
2017-Apr-22 17:21N 53°59' E 008°27'3 7.4
2017-Apr-22 16:57N 53°58' E 008°32'4 8.3
2017-Apr-22 16:29N 53°57' E 008°38'5 9.8
2017-Apr-22 15:59N 53°53' E 008°43'510.8
2017-Apr-22 15:30N 53°50' E 008°50'611.8
2017-Apr-22 15:00N 53°51' E 008°60'612.1
2017-Apr-22 14:30N 53°53' E 009°10'1111.0
2017-Apr-22 13:30N 53°46' E 009°24'611.6
2017-Apr-22 13:00N 53°41' E 009°30'611.0
2017-Apr-22 12:30N 53°36' E 009°35'510.3
2017-Apr-22 12:00N 53°34' E 009°42'5 9.7
2017-Apr-22 11:30N 53°33' E 009°50'4 7.8
2017-Apr-22 11:00N 53°31' E 009°56'1 2.4
2017-Apr-22 10:28N 53°30' E 009°57'0 0.0
2017-Apr-22 09:58N 53°30' E 009°57'0 0.0
2017-Apr-22 09:28N 53°30' E 009°57'0 0.0
2017-Apr-22 09:00N 53°30' E 009°57'0 0.0
2017-Apr-22 08:30N 53°30' E 009°57'0 0.0
2017-Apr-22 08:00N 53°30' E 009°57'0 0.0
2017-Apr-22 07:30N 53°30' E 009°57'0 0.0
2017-Apr-22 07:00N 53°30' E 009°57'0 0.0
2017-Apr-22 06:29N 53°30' E 009°57'0 0.0
2017-Apr-22 05:59N 53°30' E 009°57'0 0.0
2017-Apr-22 05:29N 53°30' E 009°57'0 0.0
2017-Apr-22 04:59N 53°30' E 009°57'0 0.0
2017-Apr-22 04:25N 53°30' E 009°57'0 0.0
2017-Apr-22 03:58N 53°30' E 009°57'0 0.0
2017-Apr-22 03:28N 53°30' E 009°57'0 0.0
2017-Apr-22 02:58N 53°30' E 009°57'0 0.1
2017-Apr-22 02:31N 53°30' E 009°57'3 6.5
2017-Apr-22 02:01N 53°32' E 009°53'4 9.0
2017-Apr-22 01:31N 53°34' E 009°46'5 9.0
2017-Apr-22 01:01N 53°34' E 009°39'4 7.9
2017-Apr-22 00:31N 53°37' E 009°33'0 0.1
2017-Apr-21 23:59N 53°37' E 009°33'0 0.2
2017-Apr-21 23:29N 53°37' E 009°33'0 0.1
2017-Apr-21 22:59N 53°37' E 009°33'0 0.1
2017-Apr-21 22:28N 53°37' E 009°34'0 0.0
2017-Apr-21 21:59N 53°37' E 009°33'0 0.0
2017-Apr-21 21:28N 53°37' E 009°33'0 0.0
2017-Apr-21 20:58N 53°37' E 009°33'0 0.0
2017-Apr-21 20:28N 53°37' E 009°33'0 0.0
2017-Apr-21 20:00N 53°37' E 009°33'0 0.0
2017-Apr-21 19:30N 53°37' E 009°33'0 0.0
2017-Apr-21 19:00N 53°37' E 009°33'0 0.0
2017-Apr-21 18:30N 53°37' E 009°33'0 0.0
2017-Apr-21 18:00N 53°37' E 009°34'0 0.0
2017-Apr-21 17:29N 53°37' E 009°34'0 0.0
2017-Apr-21 16:59N 53°37' E 009°34'0 0.0
2017-Apr-21 16:29N 53°37' E 009°34'0 0.0
2017-Apr-21 15:59N 53°37' E 009°33'0 0.0
2017-Apr-21 15:29N 53°37' E 009°33'0 0.1
2017-Apr-21 14:58N 53°37' E 009°33'0 0.0
2017-Apr-21 14:28N 53°37' E 009°33'0 0.0
2017-Apr-21 13:28N 53°37' E 009°33'0 0.1
2017-Apr-21 13:00N 53°37' E 009°33'0 0.0
2017-Apr-21 12:30N 53°37' E 009°33'0 0.0
2017-Apr-21 11:57N 53°37' E 009°33'0 0.1
2017-Apr-21 11:30N 53°37' E 009°33'0 0.1
2017-Apr-21 11:00N 53°37' E 009°33'1 1.9
2017-Apr-21 10:30N 53°38' E 009°32'5 9.3
2017-Apr-21 10:00N 53°42' E 009°30'611.3
2017-Apr-21 09:30N 53°46' E 009°24'611.6
2017-Apr-21 09:00N 53°51' E 009°19'612.2
2017-Apr-21 08:30N 53°53' E 009°08'612.5
2017-Apr-21 08:00N 53°51' E 008°58'612.8
2017-Apr-21 07:30N 53°50' E 008°47'612.3
2017-Apr-21 07:00N 53°55' E 008°40'612.0
2017-Apr-21 06:30N 53°58' E 008°32'612.6
2017-Apr-21 05:59N 53°59' E 008°21'911.9
2017-Apr-21 05:14N 53°59' E 008°06'311.3
2017-Apr-21 04:56N 54°01' E 008°00'28111.4
2017-Apr-20 04:21N 53°33' E 000°08'3 9.7
2017-Apr-20 04:00N 53°35' E 000°03'613.0
2017-Apr-20 03:31N 53°37' W 000°07'612.9
2017-Apr-20 03:00N 53°42' W 000°14'611.5
2017-Apr-20 02:30N 53°42' W 000°24'  
2017-Apr-17 08:28N 53°41' W 000°30'4 9.0
2017-Apr-17 08:01N 53°42' W 000°23'5 9.9
2017-Apr-17 07:30N 53°43' W 000°15'510.3
2017-Apr-17 07:00N 53°39' W 000°10'4 7.2
2017-Apr-17 06:30N 53°37' W 000°05'3 5.5
2017-Apr-17 06:00N 53°36' W 000°00'  
Track history (hours):
 
Tides and Currents Weather Stations Pressure Air Temp Water Temp Dewpoint Dewpoint Depression Visibility Wind Speed Wind Dir Waves Ship Positions

Barbarossa

Last reported at 2017-Apr-25 22:19 UTC. Time now 2017-Apr-26 04:08 UTC.
Position N 51°08' W 004°31'.

Length 83 m; draft 5.5 m.

Type: Cargo ship. MMSI: 236029000.

Date/timePositionNaut miles runAvg speedWind from/ knotsBaromVisibWave heightAir tempDewpointWater temp
2017-Apr-25 22:19N 51°08' W 004°31'2 8.0
2017-Apr-25 22:00N 51°06' W 004°34'4 7.1
2017-Apr-25 21:30N 51°04' W 004°38'4 7.3
2017-Apr-25 21:00N 51°01' W 004°42'4 7.6
2017-Apr-25 20:30N 50°59' W 004°46'4 7.7
2017-Apr-25 20:00N 50°56' W 004°51'4 7.4
2017-Apr-25 19:30N 50°54' W 004°56'4 7.6
2017-Apr-25 19:00N 50°52' W 005°01'4 7.8
2017-Apr-25 18:30N 50°49' W 005°05'4 8.2
2017-Apr-25 18:00N 50°47' W 005°11'4 8.3
2017-Apr-25 17:30N 50°44' W 005°16'4 8.7
2017-Apr-25 17:00N 50°41' W 005°21'4 8.9
2017-Apr-25 16:30N 50°39' W 005°27'4 8.9
2017-Apr-25 16:00N 50°36' W 005°32'4 8.4
2017-Apr-25 15:30N 50°33' W 005°37'4 8.6
2017-Apr-25 15:00N 50°30' W 005°42'5 9.0
2017-Apr-25 14:26N 50°27' W 005°48'57 6.7
2017-Apr-25 05:52N 49°59' W 004°29'4 9.8
2017-Apr-25 05:25N 49°60' W 004°23'4 9.5
2017-Apr-25 05:00N 50°01' W 004°17'6 9.4
2017-Apr-25 04:20N 50°02' W 004°07'12 9.5
2017-Apr-25 03:04N 50°05' W 003°49'1 9.9
2017-Apr-25 03:00N 50°05' W 003°48'510.1
2017-Apr-25 02:30N 50°07' W 003°40'510.7
2017-Apr-25 02:00N 50°08' W 003°32'611.2
2017-Apr-25 01:30N 50°09' W 003°24'611.7
2017-Apr-25 01:00N 50°10' W 003°15'612.1
2017-Apr-25 00:30N 50°12' W 003°06'712.3
2017-Apr-24 23:56N 50°13' W 002°55'99 8.4
2017-Apr-24 12:11N 50°29' W 000°22'211.9
2017-Apr-24 12:00N 50°29' W 000°18'611.7
2017-Apr-24 11:30N 50°30' W 000°09'611.3
2017-Apr-24 11:00N 50°32' W 000°01'510.9
2017-Apr-24 10:30N 50°34' E 000°07'510.5
2017-Apr-24 10:00N 50°35' E 000°16'610.0
2017-Apr-24 09:25N 50°37' E 000°24'4 9.5
2017-Apr-24 09:00N 50°38' E 000°30'5 9.1
2017-Apr-24 08:30N 50°40' E 000°37'4 9.0
2017-Apr-24 08:01N 50°42' E 000°43'4 8.9
2017-Apr-24 07:30N 50°45' E 000°48'2610.4
2017-Apr-24 04:59N 51°01' E 001°21'612.1
2017-Apr-24 04:30N 51°05' E 001°28'611.7
2017-Apr-24 04:00N 51°08' E 001°35'510.9
2017-Apr-24 03:30N 51°12' E 001°42'510.3
2017-Apr-24 03:00N 51°16' E 001°47'5 9.9
2017-Apr-24 02:30N 51°21' E 001°50'5 9.3
2017-Apr-24 02:00N 51°25' E 001°54'4 9.0
2017-Apr-24 01:30N 51°28' E 001°58'4 8.7
2017-Apr-24 01:00N 51°32' E 002°02'4 8.6
2017-Apr-24 00:31N 51°35' E 002°07'4 8.6
2017-Apr-24 00:00N 51°38' E 002°12'9 8.5
2017-Apr-23 23:00N 51°44' E 002°21'253 8.8
2017-Apr-22 18:22N 54°01' E 008°15'3 7.3
2017-Apr-22 17:55N 53°60' E 008°20'4 7.0
2017-Apr-22 17:21N 53°59' E 008°27'3 7.4
2017-Apr-22 16:57N 53°58' E 008°32'4 8.3
2017-Apr-22 16:29N 53°57' E 008°38'5 9.8
2017-Apr-22 15:59N 53°53' E 008°43'510.8
2017-Apr-22 15:30N 53°50' E 008°50'611.8
2017-Apr-22 15:00N 53°51' E 008°60'612.1
2017-Apr-22 14:30N 53°53' E 009°10'1111.0
2017-Apr-22 13:30N 53°46' E 009°24'611.6
2017-Apr-22 13:00N 53°41' E 009°30'611.0
2017-Apr-22 12:30N 53°36' E 009°35'510.3
2017-Apr-22 12:00N 53°34' E 009°42'5 9.7
2017-Apr-22 11:30N 53°33' E 009°50'4 7.8
2017-Apr-22 11:00N 53°31' E 009°56'1 2.4
2017-Apr-22 10:28N 53°30' E 009°57'0 0.0
2017-Apr-22 09:58N 53°30' E 009°57'0 0.0
2017-Apr-22 09:28N 53°30' E 009°57'0 0.0
2017-Apr-22 09:00N 53°30' E 009°57'0 0.0
2017-Apr-22 08:30N 53°30' E 009°57'0 0.0
2017-Apr-22 08:00N 53°30' E 009°57'0 0.0
2017-Apr-22 07:30N 53°30' E 009°57'0 0.0
2017-Apr-22 07:00N 53°30' E 009°57'0 0.0
2017-Apr-22 06:29N 53°30' E 009°57'0 0.0
2017-Apr-22 05:59N 53°30' E 009°57'0 0.0
2017-Apr-22 05:29N 53°30' E 009°57'0 0.0
2017-Apr-22 04:59N 53°30' E 009°57'0 0.0
2017-Apr-22 04:25N 53°30' E 009°57'0 0.0
2017-Apr-22 03:58N 53°30' E 009°57'0 0.0
2017-Apr-22 03:28N 53°30' E 009°57'0 0.0
2017-Apr-22 02:58N 53°30' E 009°57'0 0.1
2017-Apr-22 02:31N 53°30' E 009°57'3 6.5
2017-Apr-22 02:01N 53°32' E 009°53'4 9.0
2017-Apr-22 01:31N 53°34' E 009°46'5 9.0
2017-Apr-22 01:01N 53°34' E 009°39'4 7.9
2017-Apr-22 00:31N 53°37' E 009°33'0 0.1
2017-Apr-21 23:59N 53°37' E 009°33'0 0.2
2017-Apr-21 23:29N 53°37' E 009°33'0 0.1
2017-Apr-21 22:59N 53°37' E 009°33'0 0.1
2017-Apr-21 22:28N 53°37' E 009°34'0 0.0
2017-Apr-21 21:59N 53°37' E 009°33'0 0.0
2017-Apr-21 21:28N 53°37' E 009°33'0 0.0
2017-Apr-21 20:58N 53°37' E 009°33'0 0.0
2017-Apr-21 20:28N 53°37' E 009°33'0 0.0
2017-Apr-21 20:00N 53°37' E 009°33'0 0.0
2017-Apr-21 19:30N 53°37' E 009°33'0 0.0
2017-Apr-21 19:00N 53°37' E 009°33'0 0.0
2017-Apr-21 18:30N 53°37' E 009°33'0 0.0
2017-Apr-21 18:00N 53°37' E 009°34'0 0.0
2017-Apr-21 17:29N 53°37' E 009°34'0 0.0
2017-Apr-21 16:59N 53°37' E 009°34'0 0.0
2017-Apr-21 16:29N 53°37' E 009°34'0 0.0
2017-Apr-21 15:59N 53°37' E 009°33'0 0.0
2017-Apr-21 15:29N 53°37' E 009°33'0 0.1
2017-Apr-21 14:58N 53°37' E 009°33'0 0.0
2017-Apr-21 14:28N 53°37' E 009°33'0 0.0
2017-Apr-21 13:28N 53°37' E 009°33'0 0.1
2017-Apr-21 13:00N 53°37' E 009°33'0 0.0
2017-Apr-21 12:30N 53°37' E 009°33'0 0.0
2017-Apr-21 11:57N 53°37' E 009°33'0 0.1
2017-Apr-21 11:30N 53°37' E 009°33'0 0.1
2017-Apr-21 11:00N 53°37' E 009°33'1 1.9
2017-Apr-21 10:30N 53°38' E 009°32'5 9.3
2017-Apr-21 10:00N 53°42' E 009°30'611.3
2017-Apr-21 09:30N 53°46' E 009°24'611.6
2017-Apr-21 09:00N 53°51' E 009°19'612.2
2017-Apr-21 08:30N 53°53' E 009°08'612.5
2017-Apr-21 08:00N 53°51' E 008°58'612.8
2017-Apr-21 07:30N 53°50' E 008°47'612.3
2017-Apr-21 07:00N 53°55' E 008°40'612.0
2017-Apr-21 06:30N 53°58' E 008°32'612.6
2017-Apr-21 05:59N 53°59' E 008°21'911.9
2017-Apr-21 05:14N 53°59' E 008°06'311.3
2017-Apr-21 04:56N 54°01' E 008°00'28111.4
2017-Apr-20 04:21N 53°33' E 000°08'3 9.7
2017-Apr-20 04:00N 53°35' E 000°03'613.0
2017-Apr-20 03:31N 53°37' W 000°07'612.9
2017-Apr-20 03:00N 53°42' W 000°14'611.5
2017-Apr-20 02:30N 53°42' W 000°24'  
2017-Apr-17 08:28N 53°41' W 000°30'4 9.0
2017-Apr-17 08:01N 53°42' W 000°23'5 9.9
2017-Apr-17 07:30N 53°43' W 000°15'510.3
2017-Apr-17 07:00N 53°39' W 000°10'4 7.2
2017-Apr-17 06:30N 53°37' W 000°05'3 5.5
2017-Apr-17 06:00N 53°36' W 000°00'  

Dump ship's entire track history